Jacksonville, IL

10:25 PM CDT on July 20, 2017 (GMT -0500)
Jacksonville Municipal

Weather History for KIJX - December, 2012

Change the Weather History Date:

Wednesday, December 5, 2012

  Actual Average (KSPI) Record (KSPI)
Temperature  
Mean Temperature 41 °F -  
Max Temperature 50 °F 43 °F 67 °F (1956)
Min Temperature 32 °F 27 °F 4 °F (1895)
Degree Days  
Heating Degree Days 24    
Moisture  
Dew Point 35 °F    
Average Humidity 78    
Maximum Humidity 91    
Minimum Humidity 61    
Precipitation  
Precipitation 0.00 in - - ()
Sea Level Pressure  
Sea Level Pressure 30.32 in    
Wind  
Wind Speed 5 mph (East)    
Max Wind Speed 13 mph    
Max Gust Speed -    
Visibility 10 miles    
Events      
Averages and records for this station are not official NWS values.
T = Trace of Precipitation, MM = Missing Value Source: NWS Daily Summary

Daily Weather History Graph

Daily Weather History Graph

Search for Another Location

Airport or City:

Trip Planner

Search our weather history database for the weather conditions in past years. The results will help you decide how hot, cold, wet, or windy it might be!

Date:

Astronomy

Dec. 05, 2012 Rise Set
Actual Time 7:07 AM CST 4:36 PM CST
Civil Twilight 6:37 AM CST 5:06 PM CST
Nautical Twilight 6:03 AM CST 5:40 PM CST
Astronomical Twilight 5:30 AM CST 6:12 PM CST
Moon 11:25 PM CST (12/5) 11:31 AM CST (12/5)
Length of Visible Light 10h 29m
Length of Day
9h 28m
Waning Gibbous, 59% of the Moon is Illuminated
Dec 5
Waning Gibbous
Dec 6
Last Quarter
Dec 13
New
Dec 19
First Quarter
Dec 28
Full

Hourly Weather History & Observations

Time (CST) Temp. Windchill Dew Point Humidity Pressure Visibility Wind Dir Wind Speed Gust Speed Precip Events Conditions
12:15 AM 39.4 °F 36.1 °F 32.9 °F 78% 30.30 in 10.0 mi WNW 4.6 mph - N/A   Clear
12:35 AM 38.1 °F 34.6 °F 34.0 °F 85% 30.31 in 10.0 mi WNW 4.6 mph - N/A   Clear
12:55 AM 38.3 °F 35.9 °F 33.3 °F 82% 30.31 in 10.0 mi WNW 3.5 mph - N/A   Clear
1:15 AM 40.1 °F - 33.3 °F 77% 30.32 in 10.0 mi Calm Calm - N/A   Clear
1:35 AM 41.0 °F 38.0 °F 33.8 °F 76% 30.33 in 10.0 mi NNW 4.6 mph - N/A   Clear
1:55 AM 38.5 °F - 32.4 °F 79% 30.34 in 10.0 mi Calm Calm - N/A   Clear
2:15 AM 40.6 °F 37.5 °F 32.0 °F 71% 30.35 in 10.0 mi North 4.6 mph - N/A   Clear
2:35 AM 40.5 °F 36.5 °F 31.8 °F 71% 30.35 in 5.0 mi NNE 5.8 mph - N/A   Haze
2:55 AM 40.1 °F 38.0 °F 32.0 °F 73% 30.35 in 2.0 mi North 3.5 mph - N/A   Haze
3:15 AM 38.7 °F 35.2 °F 31.6 °F 76% 30.36 in 10.0 mi North 4.6 mph - N/A   Clear
3:35 AM 37.9 °F - 31.8 °F 79% 30.36 in 10.0 mi Calm Calm - N/A   Clear
3:55 AM 37.0 °F - 31.5 °F 80% 30.36 in 10.0 mi Calm Calm - N/A   Clear
4:15 AM 36.0 °F - 30.4 °F 80% 30.36 in 10.0 mi Calm Calm - N/A   Clear
4:35 AM 35.4 °F - 31.1 °F 84% 30.36 in 10.0 mi Calm Calm - N/A   Clear
4:55 AM 34.7 °F - 30.9 °F 86% 30.36 in 10.0 mi Calm Calm - N/A   Clear
5:15 AM 34.7 °F - 30.4 °F 84% 30.36 in 10.0 mi Calm Calm - N/A   Clear
5:35 AM 33.8 °F - 30.2 °F 87% 30.37 in 10.0 mi Calm Calm - N/A   Clear
5:55 AM 33.1 °F 30.0 °F 30.7 °F 91% 30.37 in 10.0 mi North 3.5 mph - N/A   Clear
6:15 AM 32.0 °F 27.5 °F 29.1 °F 89% 30.38 in 10.0 mi North 4.6 mph - N/A   Clear
6:35 AM 33.3 °F 28.9 °F 30.9 °F 91% 30.38 in 10.0 mi NNE 4.6 mph - N/A   Clear
6:55 AM 34.0 °F 29.8 °F 30.9 °F 89% 30.39 in 10.0 mi NNE 4.6 mph - N/A   Clear
8:35 AM 37.4 °F 31.4 °F 32.0 °F 81% 30.40 in 10.0 mi NE 8.1 mph - N/A   Clear
8:55 AM 39.2 °F 33.0 °F 32.7 °F 78% 30.40 in 10.0 mi ENE 9.2 mph - N/A   Clear
9:15 AM 39.9 °F 33.4 °F 33.3 °F 77% 30.41 in 10.0 mi ENE 10.4 mph - N/A   Clear
9:35 AM 40.6 °F 33.4 °F 33.4 °F 75% 30.40 in 10.0 mi ENE 12.7 mph - N/A   Clear
9:55 AM 41.7 °F 34.8 °F 33.8 °F 73% 30.40 in 10.0 mi ENE 12.7 mph - N/A   Clear
10:15 AM 43.0 °F 36.4 °F 34.5 °F 72% 30.40 in 10.0 mi East 12.7 mph - N/A   Clear
10:35 AM 44.4 °F 38.6 °F 34.7 °F 69% 30.40 in 10.0 mi ENE 11.5 mph - N/A   Clear
10:55 AM 45.5 °F 39.6 °F 35.4 °F 68% 30.38 in 10.0 mi East 12.7 mph - N/A   Clear
11:15 AM 45.5 °F 39.9 °F 36.3 °F 70% 30.38 in 10.0 mi East 11.5 mph - N/A   Clear
11:35 AM 46.4 °F 41.9 °F 36.5 °F 68% 30.37 in 10.0 mi ENE 9.2 mph - N/A   Clear
11:55 AM 46.9 °F - 36.5 °F 67% 30.37 in 10.0 mi East 9.2 mph - N/A   Clear
12:15 PM 47.7 °F - 37.4 °F 68% 30.36 in 10.0 mi East 8.1 mph - N/A   Clear
12:35 PM 48.4 °F - 36.5 °F 64% 30.35 in 10.0 mi East 8.1 mph - N/A   Clear
12:55 PM 49.3 °F - 37.0 °F 63% 30.35 in 10.0 mi ESE 8.1 mph - N/A   Clear
1:15 PM 49.6 °F - 36.9 °F 61% 30.33 in 10.0 mi East 6.9 mph - N/A   Clear
1:35 PM 50.0 °F - 37.4 °F 62% 30.31 in 10.0 mi East 8.1 mph - N/A   Clear
1:55 PM 49.8 °F - 37.9 °F 64% 30.31 in 10.0 mi East 6.9 mph - N/A   Clear
2:15 PM 49.8 °F - 37.6 °F 63% 30.30 in 10.0 mi East 8.1 mph - N/A   Clear
2:35 PM 49.5 °F - 37.8 °F 64% 30.30 in 10.0 mi ESE 6.9 mph - N/A   Clear
2:55 PM 49.1 °F - 39.2 °F 69% 30.29 in 10.0 mi East 8.1 mph - N/A   Clear
3:15 PM 48.6 °F - 39.7 °F 72% 30.29 in 10.0 mi East 6.9 mph - N/A   Clear
3:35 PM 48.2 °F - 40.5 °F 75% 30.28 in 10.0 mi East 5.8 mph - N/A   Clear
3:55 PM 47.7 °F - 40.8 °F 77% 30.28 in 10.0 mi East 4.6 mph - N/A   Clear
4:15 PM 45.7 °F 42.7 °F 40.3 °F 81% 30.28 in 10.0 mi East 5.8 mph - N/A   Clear
4:35 PM 44.6 °F 41.4 °F 39.6 °F 82% 30.29 in 10.0 mi East 5.8 mph - N/A   Clear
4:55 PM 43.0 °F 39.5 °F 38.5 °F 84% 30.28 in 10.0 mi East 5.8 mph - N/A   Clear
5:15 PM 41.4 °F 36.8 °F 37.4 °F 86% 30.27 in 10.0 mi East 6.9 mph - N/A   Clear
5:35 PM 40.1 °F 35.3 °F 36.5 °F 87% 30.27 in 10.0 mi East 6.9 mph - N/A   Clear
5:55 PM 39.2 °F 33.6 °F 36.3 °F 89% 30.26 in 10.0 mi East 8.1 mph - N/A   Clear
6:15 PM 39.2 °F 33.6 °F 36.3 °F 89% 30.26 in 10.0 mi East 8.1 mph - N/A   Clear
6:35 PM 39.7 °F 34.3 °F 37.0 °F 90% 30.26 in 10.0 mi East 8.1 mph - N/A   Clear
6:55 PM 40.8 °F 35.0 °F 37.4 °F 88% 30.25 in 10.0 mi East 9.2 mph - N/A   Clear
7:15 PM 40.1 °F 34.1 °F 36.9 °F 88% 30.24 in 10.0 mi East 9.2 mph - N/A   Clear
7:35 PM 40.1 °F 33.2 °F 36.9 °F 88% 30.23 in 10.0 mi ESE 11.5 mph - N/A   Clear
7:55 PM 41.2 °F 35.0 °F 36.5 °F 83% 30.23 in 10.0 mi ESE 10.4 mph - N/A   Clear
8:15 PM 40.5 °F 34.6 °F 35.8 °F 83% 30.23 in 10.0 mi ESE 9.2 mph - N/A   Clear
8:35 PM 40.1 °F 34.1 °F 35.6 °F 84% 30.22 in 10.0 mi ESE 9.2 mph - N/A   Clear
8:55 PM 40.1 °F 34.1 °F 35.4 °F 83% 30.21 in 10.0 mi ESE 9.2 mph - N/A   Clear
9:15 PM 38.3 °F 33.2 °F 34.2 °F 85% 30.20 in 10.0 mi SE 6.9 mph - N/A   Clear
9:35 PM 39.2 °F 33.0 °F 35.6 °F 87% 30.20 in 10.0 mi ESE 9.2 mph - N/A   Clear
9:55 PM 39.0 °F 32.8 °F 34.7 °F 84% 30.19 in 10.0 mi SE 9.2 mph - N/A   Clear